Time;durP1;ratioP1;P1;durP2;ratioP2;P2;SDS_P1;SDS_P2;PMS_P1;PMS_P2;Temp;Humidity;BMP_temperature;BMP_pressure;BME280_temperature;BME280_humidity;BME280_pressure;Samples;Min_cycle;Max_cycle;Signal;HPM_P1;HPM_P2
2022/05/09 00:00:17;;;;;;;12.63;3.40;;;;;;;10.69;60.76;101251.38;4972185;28;20085;-41
2022/05/09 00:02:43;;;;;;;11.48;3.42;;;;;;;10.66;61.20;101240.97;4965608;28;20082;-39
2022/05/09 00:05:15;;;;;;;10.25;2.88;;;;;;;10.61;61.55;101242.63;4967943;28;20637;-41
2022/05/09 00:07:42;;;;;;;7.70;2.63;;;;;;;10.54;62.08;101246.84;4973017;28;20720;-38
2022/05/09 00:10:12;;;;;;;12.45;3.00;;;;;;;10.48;61.21;101247.59;4968093;28;20090;-40
2022/05/09 00:12:57;;;;;;;15.18;3.38;;;;;;;10.40;61.66;101250.00;4968306;28;20058;-42
2022/05/09 00:15:23;;;;;;;13.50;3.75;;;;;;;10.41;61.51;101248.31;4968462;28;20051;-38
2022/05/09 00:17:50;;;;;;;18.38;7.03;;;;;;;10.35;61.66;101250.78;4968350;28;20708;-39
2022/05/09 00:20:18;;;;;;;12.25;4.13;;;;;;;10.32;61.62;101245.53;4967789;28;20073;-38
2022/05/09 00:22:48;;;;;;;8.90;3.03;;;;;;;10.27;61.58;101242.91;4976044;28;20081;-40
2022/05/09 00:25:14;;;;;;;;;;;;;;;10.03;62.46;101239.88;4972227;28;20495;-40
2022/05/09 00:27:41;;;;;;;8.88;2.33;;;;;;;10.10;61.94;101240.00;4981966;28;19926;-42
2022/05/09 00:30:08;;;;;;;9.95;2.78;;;;;;;10.05;62.38;101247.66;4976099;28;20105;-41
2022/05/09 00:32:35;;;;;;;6.45;2.80;;;;;;;10.01;62.07;101243.28;4979351;28;20106;-42
2022/05/09 00:35:03;;;;;;;8.80;2.92;;;;;;;9.98;62.36;101243.22;4978170;28;20047;-40
2022/05/09 00:37:30;;;;;;;13.50;2.88;;;;;;;9.94;62.45;101239.72;4979257;28;20042;-40
2022/05/09 00:39:56;;;;;;;10.40;2.75;;;;;;;9.91;61.99;101234.47;4967966;28;20109;-41
2022/05/09 00:42:23;;;;;;;8.88;2.92;;;;;;;9.91;62.34;101237.06;4981793;28;20050;-39
2022/05/09 00:44:49;;;;;;;20.17;5.43;;;;;;;9.91;61.92;101239.66;4978124;28;20055;-38
2022/05/09 00:47:16;;;;;;;12.50;3.95;;;;;;;9.90;62.12;101238.75;4983111;28;20050;-40
2022/05/09 00:49:49;;;;;;;17.20;4.43;;;;;;;9.90;61.71;101232.72;4980003;28;20054;-38
2022/05/09 00:55:00;;;;;;;27.23;9.13;;;;;;;10.34;62.32;101225.72;5037349;28;20410;-38
2022/05/09 00:57:59;;;;;;;35.47;12.40;;;;;;;9.95;62.73;101228.50;5018536;28;20137;-38
2022/05/09 01:00:26;;;;;;;17.42;6.30;;;;;;;9.91;63.07;101224.13;5018064;28;20050;-41
2022/05/09 01:02:59;;;;;;;22.45;7.47;;;;;;;9.83;62.46;101220.50;5024538;28;20077;-50
2022/05/09 01:05:28;;;;;;;9.32;4.07;;;;;;;9.75;62.97;101212.59;5017563;28;20076;-42
2022/05/09 01:07:56;;;;;;;11.55;3.20;;;;;;;9.68;62.87;101216.78;5018210;28;20061;-39
2022/05/09 01:10:31;;;;;;;18.90;4.75;;;;;;;9.62;63.14;101217.53;5040645;28;20413;-40
2022/05/09 01:13:02;;;;;;;10.70;4.65;;;;;;;9.62;63.03;101222.69;5024528;28;20042;-41
2022/05/09 01:15:30;;;;;;;11.65;4.55;;;;;;;9.61;63.35;101214.91;5016166;28;20042;-42
2022/05/09 01:18:00;;;;;;;11.25;4.47;;;;;;;9.60;63.13;101208.00;5019354;28;20486;-38
2022/05/09 01:20:27;;;;;;;19.42;5.30;;;;;;;9.58;63.18;101199.31;5035794;28;20049;-39
2022/05/09 01:22:57;;;;;;;16.98;6.20;;;;;;;9.57;62.95;101207.94;5022080;28;20100;-38
2022/05/09 01:25:25;;;;;;;13.00;4.50;;;;;;;9.54;62.94;101200.97;5013089;28;20099;-41
2022/05/09 01:27:52;;;;;;;15.65;5.10;;;;;;;9.52;62.65;101198.38;5019891;28;20112;-39
2022/05/09 01:30:22;;;;;;;17.98;5.30;;;;;;;9.51;62.89;101203.50;5018221;28;20091;-39
2022/05/09 01:33:10;;;;;;;17.50;5.38;;;;;;;9.47;63.22;101192.25;5024564;28;20080;-39
2022/05/09 01:35:48;;;;;;;20.05;5.30;;;;;;;9.40;63.21;101190.38;5015150;28;20085;-40
2022/05/09 01:38:36;;;;;;;13.43;4.45;;;;;;;9.30;62.95;101185.84;5020864;28;20143;-40
2022/05/09 01:41:03;;;;;;;14.55;4.80;;;;;;;9.31;62.62;101193.63;5017730;28;20112;-39
2022/05/09 01:46:11;;;;;;;15.88;6.13;;;;;;;9.24;63.60;101197.81;5033021;27;20406;-40
2022/05/09 01:51:25;;;;;;;22.63;8.52;;;;;;;9.19;63.18;101186.47;5022562;28;20053;-38
2022/05/09 01:53:52;;;;;;;22.70;5.90;;;;;;;9.19;63.17;101181.28;5023385;28;20744;-40
2022/05/09 01:56:22;;;;;;;9.30;3.13;;;;;;;9.21;63.42;101189.09;5025329;28;20728;-40
2022/05/09 01:58:49;;;;;;;16.75;3.90;;;;;;;9.22;62.64;101189.13;5019373;28;20481;-43
2022/05/09 02:01:18;;;;;;;10.00;4.38;;;;;;;9.23;63.53;101190.84;5017580;28;20127;-41
2022/05/09 02:03:45;;;;;;;9.48;3.33;;;;;;;9.23;62.93;101193.44;5022110;28;20049;-43
2022/05/09 02:06:12;;;;;;;10.88;4.10;;;;;;;9.21;63.29;101184.81;5023078;28;20095;-41
2022/05/09 02:08:39;;;;;;;16.55;3.63;;;;;;;9.20;62.70;101188.22;5021555;28;20107;-40
2022/05/09 02:11:06;;;;;;;8.68;3.63;;;;;;;9.18;62.85;101173.53;5019800;28;20378;-43
2022/05/09 02:13:34;;;;;;;11.95;3.47;;;;;;;9.12;62.81;101174.28;5025905;28;20046;-41
2022/05/09 02:16:01;;;;;;;9.38;3.10;;;;;;;9.09;63.65;101180.22;5016332;28;20045;-40
2022/05/09 02:18:28;;;;;;;16.15;3.92;;;;;;;9.03;63.24;101179.22;5020118;28;20057;-39
2022/05/09 02:20:54;;;;;;;8.98;3.70;;;;;;;8.98;63.92;101177.41;5021075;28;20076;-41
2022/05/09 02:23:21;;;;;;;9.00;3.95;;;;;;;8.96;63.16;101173.94;5025517;28;20053;-42
2022/05/09 02:25:47;;;;;;;11.65;2.95;;;;;;;8.95;63.78;101174.75;5016933;28;20069;-40
2022/05/09 02:28:15;;;;;;;10.20;3.55;;;;;;;8.94;63.21;101180.78;5017085;28;20054;-40
2022/05/09 02:30:42;;;;;;;9.95;3.50;;;;;;;8.92;64.06;101177.28;4998266;28;20498;-40
2022/05/09 02:33:10;;;;;;;12.52;3.40;;;;;;;8.93;64.23;101181.63;5016697;28;20076;-39
2022/05/09 02:35:38;;;;;;;7.55;3.28;;;;;;;8.93;63.81;101173.88;5018693;28;20478;-40
2022/05/09 02:38:05;;;;;;;11.32;3.08;;;;;;;8.90;63.05;101163.47;5014136;28;20069;-41
2022/05/09 02:40:33;;;;;;;8.90;3.15;;;;;;;8.89;63.75;101166.91;5015813;28;21788;-42
2022/05/09 02:43:01;;;;;;;9.75;3.03;;;;;;;8.85;63.13;101152.16;5020888;28;20057;-40
2022/05/09 02:45:29;;;;;;;9.38;2.95;;;;;;;8.83;63.19;101146.06;5016057;28;20057;-42
2022/05/09 02:47:56;;;;;;;8.88;2.88;;;;;;;8.82;63.38;101150.34;5016063;28;20046;-41
2022/05/09 02:50:27;;;;;;;10.05;2.95;;;;;;;8.79;63.98;101147.72;5013773;28;20064;-40
2022/05/09 02:52:54;;;;;;;11.27;2.95;;;;;;;8.78;63.87;101145.13;5018092;28;20108;-39
2022/05/09 02:55:22;;;;;;;10.50;3.20;;;;;;;8.74;63.13;101149.31;5013131;28;22526;-42
2022/05/09 02:57:49;;;;;;;9.57;3.47;;;;;;;8.73;64.12;101156.22;5005616;28;20045;-39
2022/05/09 03:00:21;;;;;;;12.85;3.60;;;;;;;8.72;63.92;101158.75;4986527;28;20050;-42
2022/05/09 03:05:38;;;;;;;8.25;3.20;;;;;;;8.65;63.42;101157.72;4992718;28;20046;-44
2022/05/09 03:08:06;;;;;;;14.23;3.40;;;;;;;8.64;63.06;101161.16;5004021;28;20060;-42
2022/05/09 03:10:33;;;;;;;14.70;3.72;;;;;;;8.60;63.02;101164.50;5001867;28;20111;-40
2022/05/09 03:13:01;;;;;;;8.77;2.95;;;;;;;8.57;62.68;101156.69;5005914;28;20084;-42
2022/05/09 03:15:30;;;;;;;12.02;2.70;;;;;;;8.55;63.10;101166.13;5000204;28;20662;-40
2022/05/09 03:17:56;;;;;;;7.95;2.97;;;;;;;8.51;62.37;101154.78;5004705;28;20220;-41
2022/05/09 03:20:24;;;;;;;8.02;2.63;;;;;;;8.47;63.79;101156.44;5003254;28;20662;-41
2022/05/09 03:22:51;;;;;;;11.48;2.75;;;;;;;8.46;63.70;101146.94;5001989;28;20077;-39
2022/05/09 03:25:17;;;;;;;11.82;3.83;;;;;;;8.43;63.66;101157.19;4998809;28;20069;-39
2022/05/09 03:27:44;;;;;;;18.25;5.88;;;;;;;8.41;62.39;101148.53;4997556;28;20046;-39
2022/05/09 03:30:13;;;;;;;25.25;7.75;;;;;;;8.38;62.84;101147.59;4998989;28;20046;-41
2022/05/09 03:32:39;;;;;;;23.60;7.30;;;;;;;8.35;63.11;101148.41;4998808;28;20349;-38
2022/05/09 03:35:08;;;;;;;16.33;4.43;;;;;;;8.33;63.31;101145.78;5002696;28;20096;-42
2022/05/09 03:37:35;;;;;;;18.33;5.80;;;;;;;8.30;62.36;101147.41;4998453;28;20046;-39
2022/05/09 03:40:03;;;;;;;9.15;3.15;;;;;;;8.28;62.74;101143.94;4999353;28;20076;-40
2022/05/09 03:42:31;;;;;;;8.63;2.80;;;;;;;8.25;62.45;101146.44;4997523;28;20069;-39
2022/05/09 03:44:58;;;;;;;8.95;2.97;;;;;;;8.22;62.24;101142.06;5001296;28;20061;-42
2022/05/09 03:47:24;;;;;;;9.60;3.28;;;;;;;8.20;63.24;101139.44;4998304;28;20078;-40
2022/05/09 03:49:54;;;;;;;17.02;4.93;;;;;;;8.19;62.20;101129.97;4999629;28;20054;-41
2022/05/09 03:52:21;;;;;;;30.85;9.70;;;;;;;8.17;62.45;101134.19;5008232;28;20636;-45
2022/05/09 03:54:48;;;;;;;15.90;5.15;;;;;;;8.13;62.82;101121.16;5000749;28;20046;-38
2022/05/09 03:57:15;;;;;;;33.80;10.60;;;;;;;8.09;63.46;101122.81;5008121;28;20046;-39
2022/05/09 03:59:42;;;;;;;38.53;11.77;;;;;;;8.07;63.03;101129.66;4997567;28;20136;-39
2022/05/09 04:02:10;;;;;;;51.95;13.82;;;;;;;8.03;63.06;101120.97;5002116;28;20045;-44
2022/05/09 04:04:37;;;;;;;61.38;16.50;;;;;;;8.02;63.96;101118.34;5003515;28;20068;-37
2022/05/09 04:07:03;;;;;;;13.40;3.97;;;;;;;8.00;62.51;101107.97;5004095;28;20054;-41
2022/05/09 04:09:31;;;;;;;20.30;4.95;;;;;;;8.00;62.95;101109.69;5005926;28;20050;-40
2022/05/09 04:11:57;;;;;;;10.27;4.05;;;;;;;7.98;64.16;101112.25;5008968;28;20577;-39
2022/05/09 04:17:11;;;;;;;10.60;3.80;;;;;;;7.93;63.67;101109.53;5004368;28;20571;-41
2022/05/09 04:19:38;;;;;;;9.77;3.65;;;;;;;7.91;63.97;101105.19;5006380;28;20096;-40
2022/05/09 04:22:05;;;;;;;8.93;3.53;;;;;;;7.90;62.85;101113.75;5000295;28;20426;-39
2022/05/09 04:24:33;;;;;;;78.30;24.13;;;;;;;7.89;63.27;101104.25;5001587;28;20791;-39
2022/05/09 04:27:01;;;;;;;36.72;11.52;;;;;;;7.88;63.54;101110.25;5006416;28;20104;-40
2022/05/09 04:29:28;;;;;;;19.00;7.03;;;;;;;7.88;64.10;101105.09;5000237;28;20124;-39
2022/05/09 04:31:55;;;;;;;10.90;4.35;;;;;;;7.87;63.05;101099.03;5005969;28;20076;-42
2022/05/09 04:34:21;;;;;;;7.88;3.33;;;;;;;7.85;62.58;101100.72;5002122;28;20522;-38
2022/05/09 04:36:48;;;;;;;9.23;3.05;;;;;;;7.82;63.38;101105.81;5005547;28;20465;-42
2022/05/09 04:39:16;;;;;;;11.35;3.08;;;;;;;7.81;62.95;101093.75;5002787;28;20514;-40
2022/05/09 04:41:42;;;;;;;10.43;3.10;;;;;;;7.79;63.09;101085.97;5004896;28;20049;-44
2022/05/09 04:44:09;;;;;;;11.68;3.50;;;;;;;7.77;63.74;101076.47;5005203;28;20058;-42
2022/05/09 04:46:36;;;;;;;14.18;3.90;;;;;;;7.77;64.06;101082.47;5000216;28;20494;-38
2022/05/09 04:49:03;;;;;;;8.32;3.63;;;;;;;7.78;63.19;101083.34;5003413;28;20057;-40
2022/05/09 04:51:30;;;;;;;14.70;3.85;;;;;;;7.77;62.47;101074.72;5003560;28;20132;-38
2022/05/09 04:53:56;;;;;;;10.55;3.03;;;;;;;7.78;63.67;101073.03;5005207;28;20054;-39
2022/05/09 04:56:23;;;;;;;7.82;3.38;;;;;;;7.75;63.74;101062.63;5007671;28;20046;-41
2022/05/09 04:58:49;;;;;;;14.27;4.68;;;;;;;7.73;63.67;101060.00;5000458;28;20054;-39
2022/05/09 05:01:16;;;;;;;11.30;3.38;;;;;;;7.71;63.45;101064.28;5005379;28;20046;-39
2022/05/09 05:03:43;;;;;;;10.02;3.72;;;;;;;7.71;63.28;101062.56;5002372;28;20107;-40
2022/05/09 05:06:09;;;;;;;10.35;3.75;;;;;;;7.72;64.59;101048.84;5004969;28;20088;-40
2022/05/09 05:08:36;;;;;;;11.90;4.25;;;;;;;7.76;64.67;101054.94;5007495;28;20046;-40
2022/05/09 05:11:03;;;;;;;10.10;3.67;;;;;;;7.83;64.01;101053.38;5002506;28;20554;-41
2022/05/09 05:13:33;;;;;;;7.93;3.63;;;;;;;7.91;64.24;101058.75;5004103;28;20456;-39
2022/05/09 05:16:00;;;;;;;10.35;3.95;;;;;;;8.02;64.92;101046.09;5006610;28;20140;-42
2022/05/09 05:18:27;;;;;;;12.77;3.33;;;;;;;8.15;64.34;101042.97;5000567;28;20125;-39
2022/05/09 05:20:55;;;;;;;8.88;3.35;;;;;;;8.29;64.24;101047.56;5005291;28;20096;-43
2022/05/09 05:23:22;;;;;;;10.25;3.22;;;;;;;8.43;64.97;101043.59;5001727;28;20049;-39
2022/05/09 05:25:48;;;;;;;9.85;4.25;;;;;;;8.56;64.02;101047.38;5003817;28;20046;-39
2022/05/09 05:28:16;;;;;;;8.10;3.78;;;;;;;8.70;64.83;101045.06;5003742;28;20568;-40
2022/05/09 05:30:43;;;;;;;9.75;3.75;;;;;;;8.82;64.55;101049.59;5001544;28;20042;-49
2022/05/09 05:33:10;;;;;;;11.20;3.40;;;;;;;8.90;63.94;101048.91;5004415;28;20038;-41
2022/05/09 05:35:37;;;;;;;6.38;2.80;;;;;;;8.97;63.17;101051.66;5001527;28;20046;-38
2022/05/09 05:38:04;;;;;;;10.52;3.80;;;;;;;9.04;63.63;101046.59;5000863;28;20050;-40
2022/05/09 05:40:30;;;;;;;11.93;3.90;;;;;;;9.11;63.27;101046.75;5003072;28;20057;-40
2022/05/09 05:42:57;;;;;;;12.45;3.17;;;;;;;9.26;63.58;101043.56;5006044;28;20060;-40
2022/05/09 05:45:24;;;;;;;13.88;3.83;;;;;;;9.38;63.25;101047.22;5000923;28;20049;-41
2022/05/09 05:47:51;;;;;;;7.40;2.72;;;;;;;9.49;62.74;101040.53;5004135;28;20054;-42
2022/05/09 05:50:21;;;;;;;9.30;3.35;;;;;;;9.58;63.26;101045.00;5004268;28;20041;-40
2022/05/09 05:52:47;;;;;;;8.48;3.45;;;;;;;9.71;62.97;101040.03;5000623;28;20100;-42
2022/05/09 05:55:14;;;;;;;8.57;3.60;;;;;;;9.82;62.80;101038.50;5000405;28;20084;-39
2022/05/09 05:57:41;;;;;;;7.03;2.83;;;;;;;9.98;62.79;101039.63;5004147;28;20058;-40
2022/05/09 06:00:14;;;;;;;9.63;3.85;;;;;;;10.11;62.65;101037.22;5000342;28;20054;-43
2022/05/09 06:02:41;;;;;;;8.65;3.08;;;;;;;10.24;62.32;101040.88;5000712;28;20767;-41
2022/05/09 06:05:10;;;;;;;8.32;3.90;;;;;;;10.36;61.37;101034.97;4998496;28;20153;-40
2022/05/09 06:07:37;;;;;;;6.07;3.03;;;;;;;10.41;62.10;101038.53;5001230;28;20054;-39
2022/05/09 06:10:06;;;;;;;10.77;3.05;;;;;;;10.45;61.73;101035.16;5002812;28;20046;-43
2022/05/09 06:12:34;;;;;;;6.22;3.20;;;;;;;10.40;61.07;101026.41;5000145;28;20398;-42
2022/05/09 06:17:47;;;;;;;9.88;3.53;;;;;;;10.46;60.90;101025.66;5002128;28;20045;-39
2022/05/09 06:20:14;;;;;;;8.10;3.17;;;;;;;10.56;60.92;101021.47;4999210;28;20129;-44
2022/05/09 06:22:41;;;;;;;5.60;3.03;;;;;;;10.68;60.93;101016.47;5001088;28;20053;-41
2022/05/09 06:25:11;;;;;;;6.97;2.85;;;;;;;10.78;60.47;101018.28;5003182;28;20046;-40
2022/05/09 06:27:38;;;;;;;;;;;;;;;10.87;61.46;101014.06;5005053;28;20104;-39
2022/05/09 06:30:06;;;;;;;7.25;3.25;;;;;;;11.13;60.53;101013.50;4999548;28;20389;-38
2022/05/09 06:32:34;;;;;;;10.57;3.70;;;;;;;11.36;60.87;101015.44;5006578;28;20049;-41
2022/05/09 06:35:02;;;;;;;11.02;3.75;;;;;;;11.53;59.98;101013.91;5010600;28;20069;-42
2022/05/09 06:37:32;;;;;;;8.35;2.92;;;;;;;11.72;60.27;101014.03;5005332;28;20092;-41
2022/05/09 06:40:01;;;;;;;8.93;2.65;;;;;;;11.95;59.00;101010.72;4998039;28;20572;-43
2022/05/09 06:42:28;;;;;;;7.43;2.42;;;;;;;12.24;58.98;101011.81;5004382;28;20054;-40
2022/05/09 06:44:55;;;;;;;6.35;2.70;;;;;;;12.51;59.05;101011.09;5002326;28;20054;-40
2022/05/09 06:47:22;;;;;;;6.00;2.80;;;;;;;12.79;58.47;101011.22;5005654;28;20050;-39
2022/05/09 06:49:49;;;;;;;8.40;2.58;;;;;;;13.14;58.81;101016.53;5003832;28;20053;-40
2022/05/09 06:52:16;;;;;;;5.70;2.58;;;;;;;13.45;57.71;101011.34;5004474;28;20061;-38
2022/05/09 06:54:42;;;;;;;4.75;1.80;;;;;;;13.64;54.83;101006.19;5004073;28;20046;-46
2022/05/09 06:57:09;;;;;;;8.95;2.65;;;;;;;13.77;53.57;101013.13;5003922;28;20046;-41
2022/05/09 06:59:35;;;;;;;6.85;2.33;;;;;;;13.93;52.46;101007.91;5004053;28;20386;-43
2022/05/09 07:02:02;;;;;;;3.38;2.25;;;;;;;14.08;52.02;101010.47;4998663;28;20054;-43
2022/05/09 07:04:29;;;;;;;7.30;1.70;;;;;;;14.30;51.84;101006.97;5005501;28;20065;-41
2022/05/09 07:06:57;;;;;;;4.82;1.52;;;;;;;14.54;51.24;101000.81;5000972;28;20042;-44
2022/05/09 07:09:24;;;;;;;4.85;2.47;;;;;;;14.77;51.06;101005.09;5003662;28;20064;-42
2022/05/09 07:11:51;;;;;;;3.47;1.48;;;;;;;14.88;49.08;101003.28;5005086;28;20113;-43
2022/05/09 07:14:18;;;;;;;6.25;1.13;;;;;;;15.08;48.36;101002.31;5003608;28;20145;-45
2022/05/09 07:16:45;;;;;;;3.08;1.33;;;;;;;15.18;46.98;101002.22;5005341;28;20042;-45
2022/05/09 07:19:12;;;;;;;9.32;1.92;;;;;;;15.21;46.52;101012.66;5004617;28;20073;-40
2022/05/09 07:21:38;;;;;;;3.33;1.67;;;;;;;15.20;45.77;101011.78;5000358;28;20061;-41
2022/05/09 07:24:06;;;;;;;3.95;1.65;;;;;;;15.38;46.65;101020.38;5004042;28;20041;-43
2022/05/09 07:26:34;;;;;;;5.15;1.95;;;;;;;15.64;46.53;101027.16;5013753;28;20119;-40
2022/05/09 07:29:02;;;;;;;4.60;1.40;;;;;;;15.99;46.34;101017.28;5007935;28;20116;-44
2022/05/09 07:31:29;;;;;;;4.57;2.13;;;;;;;16.40;45.54;101022.94;5006446;28;20042;-41
2022/05/09 07:33:56;;;;;;;5.30;1.85;;;;;;;16.76;44.27;101022.53;5004879;28;20065;-43
2022/05/09 07:36:22;;;;;;;4.10;1.70;;;;;;;17.06;44.03;101020.41;5006124;28;20073;-40
2022/05/09 07:38:49;;;;;;;3.05;1.27;;;;;;;17.33;43.39;101020.91;5008223;28;20072;-43
2022/05/09 07:41:16;;;;;;;5.68;2.60;;;;;;;17.51;43.95;101013.63;5010132;28;20124;-42
2022/05/09 07:43:43;;;;;;;4.82;1.60;;;;;;;17.86;43.94;101014.78;5005129;28;20103;-42
2022/05/09 07:46:10;;;;;;;5.15;1.60;;;;;;;17.94;42.74;100997.16;5008620;28;20107;-44
2022/05/09 07:48:57;;;;;;;4.03;1.38;;;;;;;17.98;41.36;100998.84;5004441;28;20568;-42
2022/05/09 07:51:23;;;;;;;4.53;1.52;;;;;;;18.07;42.22;100997.78;5006726;28;20046;-40
2022/05/09 07:53:51;;;;;;;4.32;1.55;;;;;;;18.14;41.76;100985.50;5005976;28;20518;-41
2022/05/09 07:56:18;;;;;;;3.45;1.42;;;;;;;18.21;41.67;100979.22;5008238;28;20721;-44
2022/05/09 07:58:44;;;;;;;3.67;2.22;;;;;;;18.07;40.35;100970.75;5005027;28;20129;-41
2022/05/09 08:01:11;;;;;;;3.17;1.42;;;;;;;17.83;40.76;100970.28;5005452;28;20052;-43
2022/05/09 08:03:39;;;;;;;4.85;1.58;;;;;;;17.85;41.84;100965.88;5009512;28;20413;-43
2022/05/09 08:06:06;;;;;;;6.32;1.52;;;;;;;17.90;41.88;100948.31;5006495;28;20133;-43
2022/05/09 08:08:38;;;;;;;4.10;1.80;;;;;;;18.14;42.10;100955.78;4990265;28;20050;-43
2022/05/09 08:11:11;;;;;;;5.00;1.45;;;;;;;18.19;41.63;100939.06;5004543;28;20049;-40
2022/05/09 08:13:40;;;;;;;4.60;1.80;;;;;;;18.29;41.72;100942.34;5005425;28;20050;-41
2022/05/09 08:16:07;;;;;;;4.30;1.75;;;;;;;18.34;41.45;100942.28;5004112;28;20092;-43
2022/05/09 08:18:35;;;;;;;5.47;1.55;;;;;;;18.11;40.48;100940.97;5005997;28;20072;-41
2022/05/09 08:21:03;;;;;;;3.13;1.63;;;;;;;18.20;41.64;100935.53;5007057;28;20041;-44
2022/05/09 08:23:31;;;;;;;2.95;1.73;;;;;;;18.44;40.95;100941.16;5004355;28;20053;-43
2022/05/09 08:25:58;;;;;;;2.45;1.52;;;;;;;18.48;40.69;100940.19;5006626;28;20045;-41
2022/05/09 08:28:25;;;;;;;2.95;1.20;;;;;;;18.81;41.49;100933.38;5007214;28;20064;-42
2022/05/09 08:30:52;;;;;;;4.47;2.08;;;;;;;18.85;39.60;100927.16;5007489;28;20060;-45
2022/05/09 08:33:22;;;;;;;3.53;1.45;;;;;;;18.68;40.22;100925.78;5006082;28;20045;-42
2022/05/09 08:35:51;;;;;;;4.57;1.20;;;;;;;18.56;40.66;100919.06;5002882;28;20139;-41
2022/05/09 08:38:19;;;;;;;3.70;2.08;;;;;;;18.53;39.81;100911.25;5005030;28;20486;-41
2022/05/09 08:41:12;;;;;;;5.18;1.50;;;;;;;18.68;40.30;100915.28;5007948;28;20061;-44
2022/05/09 08:47:21;;;;;;;4.45;1.70;;;;;;;18.88;39.73;100912.19;5045804;28;20408;-45
2022/05/09 08:52:53;;;;;;;3.30;1.50;;;;;;;18.45;40.59;100918.44;5036950;27;20401;-44
2022/05/09 08:55:26;;;;;;;3.75;1.73;;;;;;;18.20;40.84;100919.81;5028926;28;20054;-42
2022/05/09 08:58:03;;;;;;;4.28;2.17;;;;;;;18.10;41.16;100918.25;5034698;28;20041;-43
2022/05/09 09:00:31;;;;;;;5.05;2.60;;;;;;;18.11;41.18;100909.53;5036652;28;20436;-41
2022/05/09 09:03:37;;;;;;;4.22;2.05;;;;;;;18.01;41.30;100918.44;5023349;28;20057;-41
2022/05/09 09:06:27;;;;;;;3.80;1.83;;;;;;;18.02;42.99;100914.91;5030922;28;20052;-43
2022/05/09 09:14:41;;;;;;;9.40;1.48;;;;;;;18.03;40.82;100911.41;5049304;28;20403;-43
2022/05/09 09:20:11;;;;;;;5.00;1.90;;;;;;;17.99;42.63;100906.22;5019628;27;20425;-40
2022/05/09 09:25:28;;;;;;;5.28;1.70;;;;;;;18.58;41.63;100893.63;5018834;28;20855;-42
2022/05/09 09:28:04;;;;;;;6.07;3.58;;;;;;;18.87;41.40;100893.84;5018870;28;20359;-41
2022/05/09 09:30:31;;;;;;;;;;;;;;;19.06;41.09;100888.16;5003480;28;20383;-40
2022/05/09 09:33:02;;;;;;;5.43;2.80;;;;;;;19.09;41.21;100888.13;4996872;28;19936;-43
2022/05/09 09:38:32;;;;;;;5.30;1.90;;;;;;;18.88;41.25;100890.34;5017537;27;20421;-43
2022/05/09 09:41:26;;;;;;;5.45;2.03;;;;;;;18.68;41.14;100878.53;5019989;28;20702;-40
2022/05/09 09:47:21;;;;;;;5.32;1.67;;;;;;;18.60;41.65;100862.13;5023618;27;20409;-42
2022/05/09 09:52:52;;;;;;;4.25;1.67;;;;;;;19.12;42.19;100851.31;5027319;28;20445;-44
2022/05/09 09:55:38;;;;;;;6.20;2.00;;;;;;;19.43;41.89;100841.72;5020860;28;20044;-43
2022/05/09 09:58:24;;;;;;;5.70;1.92;;;;;;;19.57;42.19;100839.59;5025613;28;20432;-40
2022/05/09 10:03:48;;;;;;;3.67;1.60;;;;;;;19.62;40.66;100836.84;5096463;27;20399;-45
2022/05/09 10:06:18;;;;;;;4.70;1.65;;;;;;;19.52;41.59;100834.47;5065011;28;20124;-42
2022/05/09 10:08:45;;;;;;;6.20;2.15;;;;;;;19.55;41.60;100827.41;5063174;28;20044;-43
2022/05/09 10:13:52;;;;;;;4.68;2.45;;;;;;;19.73;41.55;100820.78;5027517;27;20406;-43
2022/05/09 10:19:10;;;;;;;5.43;2.30;;;;;;;19.85;40.92;100820.41;5016041;28;20429;-41
2022/05/09 10:35:40;;;;;;;5.40;3.35;;;;;;;20.53;40.20;100801.72;5001319;28;20054;-44
2022/05/09 10:41:13;;;;;;;4.25;2.28;;;;;;;20.43;41.78;100795.00;5062983;28;20388;-45
2022/05/09 10:44:00;;;;;;;;;;;;;;;20.31;42.34;100790.16;5043805;28;20056;-42
2022/05/09 10:46:42;;;;;;;6.03;2.65;;;;;;;20.27;42.02;100778.88;5024156;28;19929;-42
2022/05/09 10:49:20;;;;;;;9.10;2.05;;;;;;;20.39;42.28;100783.75;5021460;28;20038;-41
2022/05/09 11:00:07;;;;;;;6.35;2.63;;;;;;;20.94;41.90;100750.41;5040174;28;20386;-40
2022/05/09 11:02:38;;;;;;;4.82;2.10;;;;;;;20.90;41.57;100754.91;4999016;28;20050;-44
2022/05/09 11:05:06;;;;;;;6.55;2.15;;;;;;;20.78;42.05;100740.34;4983928;28;20050;-45
2022/05/09 11:07:48;;;;;;;5.40;2.20;;;;;;;20.81;42.59;100737.59;4995383;28;20054;-39
2022/05/09 11:24:41;;;;;;;10.45;4.25;;;;;;;21.07;41.55;100700.75;5055632;28;20403;-43
2022/05/09 11:27:26;;;;;;;5.38;3.25;;;;;;;20.78;42.48;100697.38;5040764;28;20069;-42
2022/05/09 11:30:46;;;;;;;5.28;3.28;;;;;;;20.78;42.68;100690.31;5032247;28;20050;-44
2022/05/09 11:33:53;;;;;;;9.80;3.30;;;;;;;20.77;43.03;100678.09;5014373;28;20572;-47
2022/05/09 11:36:44;;;;;;;12.02;5.45;;;;;;;20.99;42.93;100664.19;5030576;28;20045;-42
2022/05/09 11:45:13;;;;;;;6.43;2.90;;;;;;;21.19;42.61;100652.06;5030228;28;20128;-44
2022/05/09 11:48:01;;;;;;;6.03;2.95;;;;;;;21.36;43.88;100656.69;5024304;28;20076;-46
2022/05/09 11:50:37;;;;;;;8.68;3.05;;;;;;;21.56;43.14;100644.50;5021287;28;20049;-43
2022/05/09 11:53:06;;;;;;;8.50;3.28;;;;;;;21.65;42.56;100653.84;5021938;28;20058;-43
2022/05/09 11:55:33;;;;;;;;;;;;;;;21.50;41.90;100657.91;5023678;28;20420;-43
2022/05/09 11:58:02;;;;;;;7.60;3.20;;;;;;;21.76;42.55;100659.56;5027135;28;19921;-46
2022/05/09 12:00:47;;;;;;;;;;;;;;;21.95;43.84;100656.16;5020505;28;20076;-45
2022/05/09 12:06:37;;;;;;;12.32;4.15;;;;;;;22.25;41.43;100663.72;5032370;28;20399;-46
2022/05/09 12:09:09;;;;;;;8.05;4.07;;;;;;;22.42;42.12;100664.78;4997482;28;20043;-43
2022/05/09 12:11:47;;;;;;;11.38;4.45;;;;;;;22.33;41.56;100658.16;4983834;28;21329;-46
2022/05/09 12:14:53;;;;;;;6.50;3.50;;;;;;;22.36;41.30;100654.50;4985036;28;20043;-43
2022/05/09 18:31:23;;;;;;;6.00;2.40;;;;;;;19.70;45.80;100259.38;5048701;28;20420;-39
2022/05/09 18:33:51;;;;;;;4.18;2.40;;;;;;;19.62;46.48;100240.44;5040232;28;20132;-47
2022/05/09 18:36:19;;;;;;;5.88;2.35;;;;;;;19.58;46.36;100267.72;5039948;28;20451;-44
2022/05/09 18:38:52;;;;;;;6.82;2.15;;;;;;;19.53;46.04;100260.03;5034258;28;20107;-43
2022/05/09 18:41:22;;;;;;;7.70;3.05;;;;;;;19.51;46.34;100260.06;5035028;28;20100;-44
2022/05/09 18:43:49;;;;;;;8.98;3.38;;;;;;;19.50;46.41;100258.38;5038084;28;20049;-42
2022/05/09 18:46:23;;;;;;;8.25;3.13;;;;;;;19.47;46.49;100255.84;5032008;28;20051;-43
2022/05/09 18:52:34;;;;;;;6.15;3.20;;;;;;;19.44;46.09;100263.84;5033112;28;20050;-44
2022/05/09 18:54:29;;;;;;;6.35;3.33;;;;;;;19.28;47.01;100263.53;5020394;28;20080;-44
2022/05/09 18:56:57;;;;;;;7.65;3.22;;;;;;;19.22;46.63;100256.72;5015844;28;20060;-43
2022/05/09 18:59:24;;;;;;;7.85;3.75;;;;;;;19.19;46.58;100248.97;5034910;28;20041;-49
2022/05/09 19:01:50;;;;;;;6.82;3.63;;;;;;;19.17;47.25;100253.41;5042684;28;20049;-44
2022/05/09 19:04:19;;;;;;;7.65;3.50;;;;;;;19.15;47.41;100252.59;5022692;28;20418;-44
2022/05/09 19:06:49;;;;;;;7.63;3.17;;;;;;;19.09;47.80;100247.56;5032611;28;20053;-46
2022/05/09 19:09:18;;;;;;;5.93;3.05;;;;;;;19.04;47.55;100254.72;5039931;28;20099;-44
2022/05/09 19:11:47;;;;;;;8.02;3.45;;;;;;;18.99;47.49;100258.34;5039305;28;20053;-43
2022/05/09 19:14:24;;;;;;;6.18;3.22;;;;;;;18.95;48.28;100254.13;5047302;28;20057;-44
2022/05/09 19:16:51;;;;;;;8.13;3.10;;;;;;;18.95;47.52;100241.00;5039021;28;20053;-44
2022/05/09 19:19:18;;;;;;;5.63;3.22;;;;;;;18.91;47.75;100239.38;5046280;28;20056;-44
2022/05/09 19:21:45;;;;;;;5.80;3.15;;;;;;;18.84;48.02;100243.13;5038780;28;20049;-44
2022/05/09 19:24:13;;;;;;;8.45;3.53;;;;;;;18.83;47.90;100246.66;5039506;28;20060;-45
2022/05/09 19:26:40;;;;;;;5.47;2.72;;;;;;;18.78;48.57;100235.47;5043102;28;20053;-44
2022/05/09 19:29:13;;;;;;;5.95;2.90;;;;;;;18.72;48.94;100234.78;5041541;28;20052;-44
2022/05/09 19:31:40;;;;;;;4.15;2.47;;;;;;;18.68;48.62;100233.16;5044460;28;20405;-46
2022/05/09 19:34:10;;;;;;;6.80;2.88;;;;;;;18.63;49.40;100237.72;5041506;28;20684;-43
2022/05/09 19:36:38;;;;;;;4.88;2.72;;;;;;;18.58;49.57;100237.00;5038661;28;20115;-44